Aviation Digital Data Service (ADDS)

Output produced by METARs form (2055 UTC 23 January 2019)
found at http://www.aviationweather.gov/metar/data/
 
Forecast for: ZHHH (WUHAN/NANHU , CN)
Text: TAF ZHHH 231507Z 2318/2418 07003MPS 3000 BR NSC TX16/2407Z TN01/2321Z
Forecast period: 1800 UTC 23 January 2019 to 1800 UTC 24 January 2019
Forecast type: FROM: standard forecast or significant change
Winds: from the ENE (70 degrees) at 7 MPH (6 knots; 3.1 m/s)
Visibility: 1.86 miles (2.99 km)
Ceiling: unknown
Clouds: missing
Weather: BR  (mist)